WetterOnline ( http://www.wetteronline.de )

Wetter aktuell Senftenberg

Aktuelles Wetter: Hoyerswerda (116m)

6-stündlich | Neueste Meldungen
Ortszeit Temperatur Wetter
So, 19.08. 20:00 27.9° C wolkig
So, 19.08. 14:00 30.4° C leicht bewölkt
So, 19.08. 8:00 17.4° C bewölkt
So, 19.08. 2:00 15.5° C leicht bewölkt
Sa, 18.08. 20:00 24.8° C leicht bewölkt
Sa, 18.08. 14:00 25.1° C wolkenlos
Sa, 18.08. 8:00 18.2° C wolkig
Sa, 18.08. 2:00 21.4° C wolkig
Ortszeit Temperatur Wetter
Mo, 20.08. 0:30 20.0° C wolkenlos
Mo, 20.08. 0:20 20.0° C wolkenlos
Mo, 20.08. 0:10 20.5° C wolkenlos
Mo, 20.08. 0:00 19.8° C fast wolkenlos
So, 19.08. 23:50 19.8° C fast wolkenlos
So, 19.08. 23:40 20.5° C leicht bewölkt
So, 19.08. 23:30 21.5° C leicht bewölkt
So, 19.08. 23:00 20.7° C leicht bewölkt
So, 19.08. 22:30 20.5° C fast wolkenlos
So, 19.08. 22:00 21.2° C fast wolkenlos
So, 19.08. 21:30 23.0° C wolkenlos
Ortszeit Relative Feuchte Sichtweite
So, 19.08. 20:00 42% 55 km
So, 19.08. 14:00 35% 28 km
So, 19.08. 8:00 88% 16 km
So, 19.08. 2:00 97% 12 km
Sa, 18.08. 20:00 52% 65 km
Sa, 18.08. 14:00 54% 24 km
Sa, 18.08. 8:00 88% 15 km
Sa, 18.08. 2:00 71% 45 km
Ortszeit Relative Feuchte Sichtweite
Mo, 20.08. 0:30 74% 30 km
Mo, 20.08. 0:20 74% -
Mo, 20.08. 0:10 73% -
Mo, 20.08. 0:00 76% 29 km
So, 19.08. 23:50 76% -
So, 19.08. 23:40 74% -
So, 19.08. 23:30 70% 30 km
So, 19.08. 23:00 72% 30 km
So, 19.08. 22:30 71% 30 km
So, 19.08. 22:00 68% 40 km
So, 19.08. 21:30 62% 45 km
Ortszeit Niederschlagsmenge Niederschlagsart
So, 19.08. 20:00 0.0 l/m2 in 12 Std. -
So, 19.08. 14:00 0.0 l/m2 in 6 Std. -
So, 19.08. 8:00 0.0 l/m2 in 12 Std. -
So, 19.08. 2:00 0.0 l/m2 in 6 Std. -
Sa, 18.08. 20:00 0.0 l/m2 in 12 Std. -
Sa, 18.08. 14:00 0.0 l/m2 in 6 Std. -
Sa, 18.08. 8:00 0.9 l/m2 in 12 Std. Regen
Sa, 18.08. 2:00 0.0 l/m2 in 6 Std. -
Ortszeit Niederschlagsmenge Niederschlagsart
Mo, 20.08. 0:30 0.0 l/m2 in 1 Std. -
Mo, 20.08. 0:20 keine Meldung -
Mo, 20.08. 0:10 keine Meldung -
Mo, 20.08. 0:00 0.0 l/m2 in 1 Std. -
So, 19.08. 23:50 keine Meldung -
So, 19.08. 23:40 keine Meldung -
So, 19.08. 23:30 0.0 l/m2 in 1 Std. -
So, 19.08. 23:00 0.0 l/m2 in 1 Std. -
So, 19.08. 22:30 0.0 l/m2 in 1 Std. -
So, 19.08. 22:00 0.0 l/m2 in 1 Std. -
So, 19.08. 21:30 0.0 l/m2 in 1 Std. -
Ortszeit Stärke Spitze Richtung
km/h Bft. km/h Grad Sektor
So, 19.08. 20:00 6 1 24 330° NW
So, 19.08. 14:00 9 2 20 220° SW
So, 19.08. 8:00 0 0 7 - -
So, 19.08. 2:00 4 1 11 180° S
Sa, 18.08. 20:00 9 2 24 320° NW
Sa, 18.08. 14:00 11 2 22 290° W
Sa, 18.08. 8:00 4 1 36 310° NW
Sa, 18.08. 2:00 22 4 40 300° NW
Ortszeit Stärke Spitze Richtung
km/h Bft. km/h Grad Sektor
Mo, 20.08. 0:30 4 1 11 170° S
Mo, 20.08. 0:20 4 1 - 170° S
Mo, 20.08. 0:10 7 2 - 170° S
Mo, 20.08. 0:00 6 1 11 190° S
So, 19.08. 23:50 6 1 - 190° S
So, 19.08. 23:40 4 1 - 210° SW
So, 19.08. 23:30 7 2 11 170° S
So, 19.08. 23:00 6 1 7 160° S
So, 19.08. 22:30 2 1 6 180° S
So, 19.08. 22:00 2 1 6 170° S
So, 19.08. 21:30 4 1 7 130° SO
Ortszeit Untergrenze Bedeckung Gattung
total tief tief mittel hoch
So, 19.08. 20:00 12000 m 8/8 0/8 - - -
So, 19.08. 14:00 1800 m 3/8 3/8 - - -
So, 19.08. 8:00 1800 m 7/8 7/8 - - -
So, 19.08. 2:00 9000 m 6/8 0/8 - - -
Sa, 18.08. 20:00 10500 m 5/8 0/8 - - -
Sa, 18.08. 14:00 - 0/8 0/8 - - -
Sa, 18.08. 8:00 3600 m 6/8 6/8 - - -
Sa, 18.08. 2:00 2700 m 8/8 3/8 - - -
Ortszeit Bedeckungsgrad in Achtel und Wolkenuntergrenze
Mo, 20.08. 0:30 keine Wolken
Mo, 20.08. 0:20 keine Wolken
Mo, 20.08. 0:10 keine Wolken
Mo, 20.08. 0:00 1(3000m)
So, 19.08. 23:50 1(3000m)
So, 19.08. 23:40 2(3000m)
So, 19.08. 23:30 2(3300m)
So, 19.08. 23:00 2(3300m)
So, 19.08. 22:30 1(3300m)
So, 19.08. 22:00 1(12000m)
So, 19.08. 21:30 2(12000m)
Ortszeit Luftdruck NN (hPa) Tendenz (hPa in 3 Std.)
So, 19.08. 20:00 1016 - 1,0
So, 19.08. 14:00 1019 - 1,9
So, 19.08. 8:00 1021 + 0,4
So, 19.08. 2:00 1021 + 0,1
Sa, 18.08. 20:00 1020 + 0,2
Sa, 18.08. 14:00 1021 - 0,5
Sa, 18.08. 8:00 1020 + 0,9
Sa, 18.08. 2:00 1018 + 3,7
Ortszeit Luftdruck NN (hPa) Tendenz (hPa in 3 Std.)
Mo, 20.08. 0:30 1016 - 0,4
Mo, 20.08. 0:20 1016 keine Meldung
Mo, 20.08. 0:10 1016 keine Meldung
Mo, 20.08. 0:00 1016 - 0,3
So, 19.08. 23:50 1016 keine Meldung
So, 19.08. 23:40 1016 keine Meldung
So, 19.08. 23:30 1016 - 0,2
So, 19.08. 23:00 1016 - 0,1
So, 19.08. 22:30 1016 - 0,1
So, 19.08. 22:00 1016 - 0,1
So, 19.08. 21:30 1016 - 0,1
Ortszeit Schneehöhe (cm)
So, 19.08. 20:00 -
So, 19.08. 14:00 -
So, 19.08. 8:00 -
So, 19.08. 2:00 -
Sa, 18.08. 20:00 -
Sa, 18.08. 14:00 -
Sa, 18.08. 8:00 -
Sa, 18.08. 2:00 -
Ortszeit Schneehöhe (cm)
Mo, 20.08. 0:30 -
Mo, 20.08. 0:20 -
Mo, 20.08. 0:10 -
Mo, 20.08. 0:00 -
So, 19.08. 23:50 -
So, 19.08. 23:40 -
So, 19.08. 23:30 -
So, 19.08. 23:00 -
So, 19.08. 22:30 -
So, 19.08. 22:00 -
So, 19.08. 21:30 -
Link zu dieser Seite / Seite empfehlen

Das Wetter in ...